sensor_id;sensor_type;location;lat;lon;timestamp;P1;durP1;ratioP1;P2;durP2;ratioP2
39778;SDS011;25454;49.878;8.618;2023-06-14T00:02:51;6.80;;;4.67;;
39778;SDS011;25454;49.878;8.618;2023-06-14T00:07:55;5.20;;;4.43;;
39778;SDS011;25454;49.878;8.618;2023-06-14T00:12:56;7.23;;;4.70;;
39778;SDS011;25454;49.878;8.618;2023-06-14T00:18:00;6.13;;;4.60;;
39778;SDS011;25454;49.878;8.618;2023-06-14T00:23:01;7.23;;;4.87;;
39778;SDS011;25454;49.878;8.618;2023-06-14T00:28:02;5.50;;;4.47;;
39778;SDS011;25454;49.878;8.618;2023-06-14T00:33:03;7.67;;;5.10;;
39778;SDS011;25454;49.878;8.618;2023-06-14T00:38:04;7.07;;;4.60;;
39778;SDS011;25454;49.878;8.618;2023-06-14T00:43:04;6.93;;;5.20;;
39778;SDS011;25454;49.878;8.618;2023-06-14T00:48:06;9.33;;;4.77;;
39778;SDS011;25454;49.878;8.618;2023-06-14T00:53:07;6.83;;;4.63;;
39778;SDS011;25454;49.878;8.618;2023-06-14T00:58:08;7.57;;;5.23;;
39778;SDS011;25454;49.878;8.618;2023-06-14T01:03:10;7.40;;;5.30;;
39778;SDS011;25454;49.878;8.618;2023-06-14T01:13:35;7.40;;;4.90;;
39778;SDS011;25454;49.878;8.618;2023-06-14T01:18:38;8.40;;;5.03;;
39778;SDS011;25454;49.878;8.618;2023-06-14T01:23:38;5.83;;;4.87;;
39778;SDS011;25454;49.878;8.618;2023-06-14T01:28:39;6.30;;;4.73;;
39778;SDS011;25454;49.878;8.618;2023-06-14T01:33:40;7.20;;;4.70;;
39778;SDS011;25454;49.878;8.618;2023-06-14T01:38:40;6.57;;;4.37;;
39778;SDS011;25454;49.878;8.618;2023-06-14T01:43:43;7.07;;;4.83;;
39778;SDS011;25454;49.878;8.618;2023-06-14T01:48:45;7.23;;;4.73;;
39778;SDS011;25454;49.878;8.618;2023-06-14T01:53:46;7.03;;;4.27;;
39778;SDS011;25454;49.878;8.618;2023-06-14T01:58:47;6.57;;;4.97;;
39778;SDS011;25454;49.878;8.618;2023-06-14T02:03:48;7.47;;;4.70;;
39778;SDS011;25454;49.878;8.618;2023-06-14T02:08:49;7.17;;;4.67;;
39778;SDS011;25454;49.878;8.618;2023-06-14T02:13:50;9.07;;;4.63;;
39778;SDS011;25454;49.878;8.618;2023-06-14T02:18:50;7.10;;;4.30;;
39778;SDS011;25454;49.878;8.618;2023-06-14T02:23:51;6.73;;;4.67;;
39778;SDS011;25454;49.878;8.618;2023-06-14T02:28:51;5.40;;;4.90;;
39778;SDS011;25454;49.878;8.618;2023-06-14T02:33:52;5.53;;;4.43;;
39778;SDS011;25454;49.878;8.618;2023-06-14T02:38:54;7.63;;;5.20;;
39778;SDS011;25454;49.878;8.618;2023-06-14T02:43:54;8.80;;;5.37;;
39778;SDS011;25454;49.878;8.618;2023-06-14T02:48:56;5.97;;;4.80;;
39778;SDS011;25454;49.878;8.618;2023-06-14T02:53:56;10.60;;;4.87;;
39778;SDS011;25454;49.878;8.618;2023-06-14T02:58:57;11.23;;;5.00;;
39778;SDS011;25454;49.878;8.618;2023-06-14T03:03:58;10.27;;;4.80;;
39778;SDS011;25454;49.878;8.618;2023-06-14T03:08:59;10.10;;;4.80;;
39778;SDS011;25454;49.878;8.618;2023-06-14T03:14:01;8.93;;;5.40;;
39778;SDS011;25454;49.878;8.618;2023-06-14T03:19:04;5.53;;;4.93;;
39778;SDS011;25454;49.878;8.618;2023-06-14T03:24:05;6.37;;;4.30;;
39778;SDS011;25454;49.878;8.618;2023-06-14T03:29:05;9.70;;;4.70;;
39778;SDS011;25454;49.878;8.618;2023-06-14T03:34:06;10.97;;;4.37;;
39778;SDS011;25454;49.878;8.618;2023-06-14T03:39:09;6.60;;;4.57;;
39778;SDS011;25454;49.878;8.618;2023-06-14T03:44:10;7.93;;;4.80;;
39778;SDS011;25454;49.878;8.618;2023-06-14T03:49:11;6.90;;;4.83;;
39778;SDS011;25454;49.878;8.618;2023-06-14T03:54:12;6.37;;;4.50;;
39778;SDS011;25454;49.878;8.618;2023-06-14T03:59:12;7.37;;;4.10;;
39778;SDS011;25454;49.878;8.618;2023-06-14T04:04:13;5.53;;;4.40;;
39778;SDS011;25454;49.878;8.618;2023-06-14T04:09:16;7.70;;;4.50;;
39778;SDS011;25454;49.878;8.618;2023-06-14T04:14:19;15.80;;;4.70;;
39778;SDS011;25454;49.878;8.618;2023-06-14T04:19:19;6.70;;;4.33;;
39778;SDS011;25454;49.878;8.618;2023-06-14T04:24:20;9.00;;;4.00;;
39778;SDS011;25454;49.878;8.618;2023-06-14T04:29:21;7.60;;;4.30;;
39778;SDS011;25454;49.878;8.618;2023-06-14T04:34:23;10.20;;;4.60;;
39778;SDS011;25454;49.878;8.618;2023-06-14T04:39:29;8.43;;;4.30;;
39778;SDS011;25454;49.878;8.618;2023-06-14T04:44:30;7.20;;;4.10;;
39778;SDS011;25454;49.878;8.618;2023-06-14T04:49:31;8.67;;;3.90;;
39778;SDS011;25454;49.878;8.618;2023-06-14T04:54:32;10.27;;;4.43;;
39778;SDS011;25454;49.878;8.618;2023-06-14T04:59:33;11.23;;;4.17;;
39778;SDS011;25454;49.878;8.618;2023-06-14T05:04:35;9.30;;;4.00;;
39778;SDS011;25454;49.878;8.618;2023-06-14T05:09:39;5.50;;;4.20;;
39778;SDS011;25454;49.878;8.618;2023-06-14T05:14:40;13.97;;;4.50;;
39778;SDS011;25454;49.878;8.618;2023-06-14T05:19:40;7.80;;;3.90;;
39778;SDS011;25454;49.878;8.618;2023-06-14T05:24:41;7.77;;;3.93;;
39778;SDS011;25454;49.878;8.618;2023-06-14T05:29:42;4.80;;;3.60;;
39778;SDS011;25454;49.878;8.618;2023-06-14T05:34:42;6.27;;;4.03;;
39778;SDS011;25454;49.878;8.618;2023-06-14T05:39:43;6.80;;;3.80;;
39778;SDS011;25454;49.878;8.618;2023-06-14T05:44:44;8.27;;;4.00;;
39778;SDS011;25454;49.878;8.618;2023-06-14T05:49:44;7.33;;;3.90;;
39778;SDS011;25454;49.878;8.618;2023-06-14T05:54:45;6.33;;;3.90;;
39778;SDS011;25454;49.878;8.618;2023-06-14T05:59:47;4.70;;;3.70;;
39778;SDS011;25454;49.878;8.618;2023-06-14T06:04:47;6.30;;;3.97;;
39778;SDS011;25454;49.878;8.618;2023-06-14T06:09:48;8.67;;;4.50;;
39778;SDS011;25454;49.878;8.618;2023-06-14T06:14:52;5.17;;;4.20;;
39778;SDS011;25454;49.878;8.618;2023-06-14T06:19:53;7.70;;;3.80;;
39778;SDS011;25454;49.878;8.618;2023-06-14T06:24:54;4.60;;;3.93;;
39778;SDS011;25454;49.878;8.618;2023-06-14T06:29:54;7.10;;;4.10;;
39778;SDS011;25454;49.878;8.618;2023-06-14T06:35:01;7.37;;;4.20;;
39778;SDS011;25454;49.878;8.618;2023-06-14T06:40:03;6.60;;;3.80;;
39778;SDS011;25454;49.878;8.618;2023-06-14T06:45:05;11.57;;;3.93;;
39778;SDS011;25454;49.878;8.618;2023-06-14T06:50:09;8.93;;;4.20;;
39778;SDS011;25454;49.878;8.618;2023-06-14T06:55:10;4.57;;;3.60;;
39778;SDS011;25454;49.878;8.618;2023-06-14T07:00:11;5.27;;;3.53;;
39778;SDS011;25454;49.878;8.618;2023-06-14T07:05:12;7.33;;;3.90;;
39778;SDS011;25454;49.878;8.618;2023-06-14T07:10:16;12.80;;;4.30;;
39778;SDS011;25454;49.878;8.618;2023-06-14T07:15:17;11.13;;;4.30;;
39778;SDS011;25454;49.878;8.618;2023-06-14T07:20:20;7.50;;;4.00;;
39778;SDS011;25454;49.878;8.618;2023-06-14T07:25:22;8.00;;;4.43;;
39778;SDS011;25454;49.878;8.618;2023-06-14T07:30:23;9.70;;;3.83;;
39778;SDS011;25454;49.878;8.618;2023-06-14T07:35:25;5.03;;;3.80;;
39778;SDS011;25454;49.878;8.618;2023-06-14T07:40:26;9.03;;;3.83;;
39778;SDS011;25454;49.878;8.618;2023-06-14T07:45:27;10.90;;;3.70;;
39778;SDS011;25454;49.878;8.618;2023-06-14T07:50:28;4.90;;;3.83;;
39778;SDS011;25454;49.878;8.618;2023-06-14T07:55:29;5.23;;;3.87;;
39778;SDS011;25454;49.878;8.618;2023-06-14T08:00:32;10.37;;;3.57;;
39778;SDS011;25454;49.878;8.618;2023-06-14T08:05:33;5.77;;;3.87;;
39778;SDS011;25454;49.878;8.618;2023-06-14T08:10:37;7.83;;;3.67;;
39778;SDS011;25454;49.878;8.618;2023-06-14T08:15:38;7.73;;;3.70;;
39778;SDS011;25454;49.878;8.618;2023-06-14T08:20:38;7.13;;;3.30;;
39778;SDS011;25454;49.878;8.618;2023-06-14T08:25:40;7.17;;;3.20;;
39778;SDS011;25454;49.878;8.618;2023-06-14T08:30:41;4.70;;;3.57;;
39778;SDS011;25454;49.878;8.618;2023-06-14T08:35:42;5.27;;;2.80;;
39778;SDS011;25454;49.878;8.618;2023-06-14T08:40:43;5.87;;;2.60;;
39778;SDS011;25454;49.878;8.618;2023-06-14T08:45:52;6.40;;;3.00;;
39778;SDS011;25454;49.878;8.618;2023-06-14T08:50:59;6.17;;;2.60;;
39778;SDS011;25454;49.878;8.618;2023-06-14T08:56:04;5.33;;;2.90;;
39778;SDS011;25454;49.878;8.618;2023-06-14T09:01:08;5.60;;;3.03;;
39778;SDS011;25454;49.878;8.618;2023-06-14T09:06:12;5.53;;;2.60;;
39778;SDS011;25454;49.878;8.618;2023-06-14T09:11:16;2.87;;;2.13;;
39778;SDS011;25454;49.878;8.618;2023-06-14T09:16:18;5.03;;;2.13;;
39778;SDS011;25454;49.878;8.618;2023-06-14T09:21:19;5.13;;;2.10;;
39778;SDS011;25454;49.878;8.618;2023-06-14T09:26:21;3.97;;;1.97;;
39778;SDS011;25454;49.878;8.618;2023-06-14T09:31:27;3.63;;;1.83;;
39778;SDS011;25454;49.878;8.618;2023-06-14T09:36:31;2.87;;;2.13;;
39778;SDS011;25454;49.878;8.618;2023-06-14T09:41:36;4.23;;;2.10;;
39778;SDS011;25454;49.878;8.618;2023-06-14T09:46:38;4.63;;;2.07;;
39778;SDS011;25454;49.878;8.618;2023-06-14T09:51:43;3.13;;;1.90;;
39778;SDS011;25454;49.878;8.618;2023-06-14T09:56:45;3.37;;;1.90;;
39778;SDS011;25454;49.878;8.618;2023-06-14T10:01:49;3.73;;;1.83;;
39778;SDS011;25454;49.878;8.618;2023-06-14T10:06:50;3.80;;;1.93;;
39778;SDS011;25454;49.878;8.618;2023-06-14T10:11:52;4.63;;;1.70;;
39778;SDS011;25454;49.878;8.618;2023-06-14T10:16:56;3.83;;;2.03;;
39778;SDS011;25454;49.878;8.618;2023-06-14T10:22:06;3.37;;;1.80;;
39778;SDS011;25454;49.878;8.618;2023-06-14T10:27:14;5.10;;;2.20;;
39778;SDS011;25454;49.878;8.618;2023-06-14T10:32:17;7.20;;;2.20;;
39778;SDS011;25454;49.878;8.618;2023-06-14T10:37:18;3.60;;;2.10;;
39778;SDS011;25454;49.878;8.618;2023-06-14T10:42:19;7.37;;;2.20;;
39778;SDS011;25454;49.878;8.618;2023-06-14T10:47:34;2.93;;;1.73;;
39778;SDS011;25454;49.878;8.618;2023-06-14T10:52:40;4.00;;;2.07;;
39778;SDS011;25454;49.878;8.618;2023-06-14T10:57:42;3.30;;;2.00;;
39778;SDS011;25454;49.878;8.618;2023-06-14T11:13:54;2.13;;;1.63;;
39778;SDS011;25454;49.878;8.618;2023-06-14T11:18:55;2.30;;;2.10;;
39778;SDS011;25454;49.878;8.618;2023-06-14T11:23:56;2.60;;;1.83;;
39778;SDS011;25454;49.878;8.618;2023-06-14T11:29:00;2.63;;;1.90;;
39778;SDS011;25454;49.878;8.618;2023-06-14T11:34:01;4.40;;;2.07;;
39778;SDS011;25454;49.878;8.618;2023-06-14T11:39:04;3.50;;;1.93;;
39778;SDS011;25454;49.878;8.618;2023-06-14T11:44:07;3.00;;;2.40;;
39778;SDS011;25454;49.878;8.618;2023-06-14T11:49:08;3.57;;;2.27;;
39778;SDS011;25454;49.878;8.618;2023-06-14T11:54:09;3.10;;;2.17;;
39778;SDS011;25454;49.878;8.618;2023-06-14T11:59:12;3.77;;;2.23;;
39778;SDS011;25454;49.878;8.618;2023-06-14T12:04:13;3.93;;;2.53;;
39778;SDS011;25454;49.878;8.618;2023-06-14T12:09:14;4.07;;;2.37;;
39778;SDS011;25454;49.878;8.618;2023-06-14T12:14:18;3.63;;;2.37;;
39778;SDS011;25454;49.878;8.618;2023-06-14T12:19:18;4.90;;;2.30;;
39778;SDS011;25454;49.878;8.618;2023-06-14T12:24:19;2.93;;;2.40;;
39778;SDS011;25454;49.878;8.618;2023-06-14T12:29:20;5.83;;;2.60;;
39778;SDS011;25454;49.878;8.618;2023-06-14T12:34:20;5.77;;;2.70;;
39778;SDS011;25454;49.878;8.618;2023-06-14T12:39:21;5.30;;;3.07;;
39778;SDS011;25454;49.878;8.618;2023-06-14T12:44:24;5.13;;;2.67;;
39778;SDS011;25454;49.878;8.618;2023-06-14T12:49:25;7.03;;;2.97;;
39778;SDS011;25454;49.878;8.618;2023-06-14T12:54:27;3.77;;;2.57;;
39778;SDS011;25454;49.878;8.618;2023-06-14T12:59:28;2.97;;;2.53;;
39778;SDS011;25454;49.878;8.618;2023-06-14T13:04:32;2.93;;;2.60;;
39778;SDS011;25454;49.878;8.618;2023-06-14T13:09:33;5.20;;;2.57;;
39778;SDS011;25454;49.878;8.618;2023-06-14T13:14:34;4.67;;;2.50;;
39778;SDS011;25454;49.878;8.618;2023-06-14T13:19:34;4.00;;;2.50;;
39778;SDS011;25454;49.878;8.618;2023-06-14T13:24:35;2.63;;;2.40;;
39778;SDS011;25454;49.878;8.618;2023-06-14T13:29:36;3.33;;;2.50;;
39778;SDS011;25454;49.878;8.618;2023-06-14T13:34:37;4.53;;;2.60;;
39778;SDS011;25454;49.878;8.618;2023-06-14T13:39:37;3.33;;;2.53;;
39778;SDS011;25454;49.878;8.618;2023-06-14T13:44:38;4.63;;;2.57;;
39778;SDS011;25454;49.878;8.618;2023-06-14T13:49:39;4.50;;;2.50;;
39778;SDS011;25454;49.878;8.618;2023-06-14T13:54:40;5.17;;;2.47;;
39778;SDS011;25454;49.878;8.618;2023-06-14T13:59:42;4.33;;;2.30;;
39778;SDS011;25454;49.878;8.618;2023-06-14T14:04:45;3.87;;;2.47;;
39778;SDS011;25454;49.878;8.618;2023-06-14T14:09:52;3.83;;;2.70;;
39778;SDS011;25454;49.878;8.618;2023-06-14T14:14:53;4.83;;;2.50;;
39778;SDS011;25454;49.878;8.618;2023-06-14T14:19:54;5.60;;;2.70;;
39778;SDS011;25454;49.878;8.618;2023-06-14T14:24:55;4.27;;;2.50;;
39778;SDS011;25454;49.878;8.618;2023-06-14T14:29:55;4.87;;;2.50;;
39778;SDS011;25454;49.878;8.618;2023-06-14T14:34:56;3.03;;;2.43;;
39778;SDS011;25454;49.878;8.618;2023-06-14T14:39:56;6.20;;;2.47;;
39778;SDS011;25454;49.878;8.618;2023-06-14T14:44:57;3.40;;;2.07;;
39778;SDS011;25454;49.878;8.618;2023-06-14T14:49:57;3.50;;;2.27;;
39778;SDS011;25454;49.878;8.618;2023-06-14T14:54:58;5.90;;;2.53;;
39778;SDS011;25454;49.878;8.618;2023-06-14T14:59:59;4.10;;;2.20;;
39778;SDS011;25454;49.878;8.618;2023-06-14T15:04:59;3.83;;;2.33;;
39778;SDS011;25454;49.878;8.618;2023-06-14T15:10:01;4.73;;;2.27;;
39778;SDS011;25454;49.878;8.618;2023-06-14T15:15:02;7.07;;;2.33;;
39778;SDS011;25454;49.878;8.618;2023-06-14T15:20:03;3.27;;;2.43;;
39778;SDS011;25454;49.878;8.618;2023-06-14T15:25:06;5.03;;;2.60;;
39778;SDS011;25454;49.878;8.618;2023-06-14T15:30:07;3.80;;;2.37;;
39778;SDS011;25454;49.878;8.618;2023-06-14T15:35:08;2.77;;;2.30;;
39778;SDS011;25454;49.878;8.618;2023-06-14T15:40:08;4.60;;;2.20;;
39778;SDS011;25454;49.878;8.618;2023-06-14T15:45:09;5.23;;;2.27;;
39778;SDS011;25454;49.878;8.618;2023-06-14T15:50:10;5.33;;;2.10;;
39778;SDS011;25454;49.878;8.618;2023-06-14T15:55:11;3.77;;;2.13;;
39778;SDS011;25454;49.878;8.618;2023-06-14T16:00:12;3.70;;;1.73;;
39778;SDS011;25454;49.878;8.618;2023-06-14T16:05:17;4.67;;;2.47;;
39778;SDS011;25454;49.878;8.618;2023-06-14T16:10:17;3.13;;;1.90;;
39778;SDS011;25454;49.878;8.618;2023-06-14T16:15:18;3.17;;;2.07;;
39778;SDS011;25454;49.878;8.618;2023-06-14T16:20:19;2.50;;;2.30;;
39778;SDS011;25454;49.878;8.618;2023-06-14T16:25:19;2.83;;;2.27;;
39778;SDS011;25454;49.878;8.618;2023-06-14T16:30:21;3.70;;;2.40;;
39778;SDS011;25454;49.878;8.618;2023-06-14T16:35:22;2.93;;;1.90;;
39778;SDS011;25454;49.878;8.618;2023-06-14T16:40:22;4.13;;;2.30;;
39778;SDS011;25454;49.878;8.618;2023-06-14T16:45:23;4.73;;;2.20;;
39778;SDS011;25454;49.878;8.618;2023-06-14T16:50:23;3.17;;;1.90;;
39778;SDS011;25454;49.878;8.618;2023-06-14T16:55:24;5.73;;;2.20;;
39778;SDS011;25454;49.878;8.618;2023-06-14T17:00:25;4.73;;;2.70;;
39778;SDS011;25454;49.878;8.618;2023-06-14T17:05:28;4.40;;;2.80;;
39778;SDS011;25454;49.878;8.618;2023-06-14T17:10:29;2.83;;;2.40;;
39778;SDS011;25454;49.878;8.618;2023-06-14T17:15:29;3.40;;;1.80;;
39778;SDS011;25454;49.878;8.618;2023-06-14T17:20:30;2.23;;;2.00;;
39778;SDS011;25454;49.878;8.618;2023-06-14T17:25:31;3.23;;;2.30;;
39778;SDS011;25454;49.878;8.618;2023-06-14T17:30:31;7.10;;;2.40;;
39778;SDS011;25454;49.878;8.618;2023-06-14T17:35:32;5.23;;;2.50;;
39778;SDS011;25454;49.878;8.618;2023-06-14T17:40:32;3.90;;;2.00;;
39778;SDS011;25454;49.878;8.618;2023-06-14T17:45:33;2.77;;;2.37;;
39778;SDS011;25454;49.878;8.618;2023-06-14T17:50:34;3.83;;;2.00;;
39778;SDS011;25454;49.878;8.618;2023-06-14T17:55:38;2.73;;;2.10;;
39778;SDS011;25454;49.878;8.618;2023-06-14T18:00:39;2.20;;;2.00;;
39778;SDS011;25454;49.878;8.618;2023-06-14T18:05:42;3.93;;;1.97;;
39778;SDS011;25454;49.878;8.618;2023-06-14T18:10:44;4.13;;;3.10;;
39778;SDS011;25454;49.878;8.618;2023-06-14T18:15:45;3.57;;;2.50;;
39778;SDS011;25454;49.878;8.618;2023-06-14T18:20:46;2.97;;;2.63;;
39778;SDS011;25454;49.878;8.618;2023-06-14T18:25:46;2.70;;;2.40;;
39778;SDS011;25454;49.878;8.618;2023-06-14T18:30:47;4.53;;;2.23;;
39778;SDS011;25454;49.878;8.618;2023-06-14T18:35:47;2.40;;;2.20;;
39778;SDS011;25454;49.878;8.618;2023-06-14T18:40:48;2.60;;;2.40;;
39778;SDS011;25454;49.878;8.618;2023-06-14T18:45:51;3.63;;;2.40;;
39778;SDS011;25454;49.878;8.618;2023-06-14T18:50:52;4.37;;;2.20;;
39778;SDS011;25454;49.878;8.618;2023-06-14T18:55:53;6.13;;;2.30;;
39778;SDS011;25454;49.878;8.618;2023-06-14T19:00:53;6.73;;;2.57;;
39778;SDS011;25454;49.878;8.618;2023-06-14T19:05:54;2.23;;;2.00;;
39778;SDS011;25454;49.878;8.618;2023-06-14T19:10:57;3.60;;;2.57;;
39778;SDS011;25454;49.878;8.618;2023-06-14T19:15:58;4.53;;;2.70;;
39778;SDS011;25454;49.878;8.618;2023-06-14T19:20:58;3.77;;;2.40;;
39778;SDS011;25454;49.878;8.618;2023-06-14T19:25:59;2.67;;;2.33;;
39778;SDS011;25454;49.878;8.618;2023-06-14T19:30:59;5.23;;;2.80;;
39778;SDS011;25454;49.878;8.618;2023-06-14T19:36:01;4.33;;;2.90;;
39778;SDS011;25454;49.878;8.618;2023-06-14T19:41:02;7.57;;;2.63;;
39778;SDS011;25454;49.878;8.618;2023-06-14T19:46:03;4.00;;;2.83;;
39778;SDS011;25454;49.878;8.618;2023-06-14T19:51:03;3.17;;;2.53;;
39778;SDS011;25454;49.878;8.618;2023-06-14T19:56:04;3.40;;;2.90;;
39778;SDS011;25454;49.878;8.618;2023-06-14T20:01:06;4.10;;;2.53;;
39778;SDS011;25454;49.878;8.618;2023-06-14T20:06:07;3.40;;;2.53;;
39778;SDS011;25454;49.878;8.618;2023-06-14T20:11:10;7.93;;;2.90;;
39778;SDS011;25454;49.878;8.618;2023-06-14T20:16:16;5.73;;;3.07;;
39778;SDS011;25454;49.878;8.618;2023-06-14T20:21:16;5.57;;;3.00;;
39778;SDS011;25454;49.878;8.618;2023-06-14T20:26:17;3.67;;;2.70;;
39778;SDS011;25454;49.878;8.618;2023-06-14T20:31:18;3.07;;;2.53;;
39778;SDS011;25454;49.878;8.618;2023-06-14T20:36:19;4.50;;;2.83;;
39778;SDS011;25454;49.878;8.618;2023-06-14T20:41:21;3.57;;;2.90;;
39778;SDS011;25454;49.878;8.618;2023-06-14T20:46:21;6.00;;;2.57;;
39778;SDS011;25454;49.878;8.618;2023-06-14T20:51:27;4.80;;;2.97;;
39778;SDS011;25454;49.878;8.618;2023-06-14T20:56:28;6.73;;;2.80;;
39778;SDS011;25454;49.878;8.618;2023-06-14T21:01:29;8.07;;;2.73;;
39778;SDS011;25454;49.878;8.618;2023-06-14T21:06:34;3.97;;;2.80;;
39778;SDS011;25454;49.878;8.618;2023-06-14T21:11:38;5.67;;;2.97;;
39778;SDS011;25454;49.878;8.618;2023-06-14T21:16:41;4.63;;;3.03;;
39778;SDS011;25454;49.878;8.618;2023-06-14T21:21:42;5.87;;;2.40;;
39778;SDS011;25454;49.878;8.618;2023-06-14T21:26:42;5.80;;;2.97;;
39778;SDS011;25454;49.878;8.618;2023-06-14T21:31:43;4.67;;;2.83;;
39778;SDS011;25454;49.878;8.618;2023-06-14T21:36:44;6.17;;;3.33;;
39778;SDS011;25454;49.878;8.618;2023-06-14T21:41:45;3.83;;;2.83;;
39778;SDS011;25454;49.878;8.618;2023-06-14T21:46:46;2.57;;;2.37;;
39778;SDS011;25454;49.878;8.618;2023-06-14T21:51:46;5.63;;;2.83;;
39778;SDS011;25454;49.878;8.618;2023-06-14T21:56:47;3.07;;;2.80;;
39778;SDS011;25454;49.878;8.618;2023-06-14T22:01:47;4.47;;;2.90;;
39778;SDS011;25454;49.878;8.618;2023-06-14T22:06:48;3.70;;;2.60;;
39778;SDS011;25454;49.878;8.618;2023-06-14T22:11:48;5.60;;;2.83;;
39778;SDS011;25454;49.878;8.618;2023-06-14T22:16:49;4.87;;;2.97;;
39778;SDS011;25454;49.878;8.618;2023-06-14T22:21:51;4.23;;;2.87;;
39778;SDS011;25454;49.878;8.618;2023-06-14T22:26:52;6.30;;;2.77;;
39778;SDS011;25454;49.878;8.618;2023-06-14T22:31:56;4.73;;;3.13;;
39778;SDS011;25454;49.878;8.618;2023-06-14T22:36:56;3.50;;;2.53;;
39778;SDS011;25454;49.878;8.618;2023-06-14T22:42:03;3.77;;;2.80;;
39778;SDS011;25454;49.878;8.618;2023-06-14T22:47:06;4.00;;;2.60;;
39778;SDS011;25454;49.878;8.618;2023-06-14T22:52:11;6.10;;;3.80;;
39778;SDS011;25454;49.878;8.618;2023-06-14T22:57:13;4.50;;;3.00;;
39778;SDS011;25454;49.878;8.618;2023-06-14T23:02:17;6.07;;;2.73;;
39778;SDS011;25454;49.878;8.618;2023-06-14T23:07:18;4.37;;;3.40;;
39778;SDS011;25454;49.878;8.618;2023-06-14T23:12:29;10.40;;;4.57;;
39778;SDS011;25454;49.878;8.618;2023-06-14T23:17:30;9.07;;;4.50;;
39778;SDS011;25454;49.878;8.618;2023-06-14T23:22:31;3.57;;;2.70;;
39778;SDS011;25454;49.878;8.618;2023-06-14T23:27:35;4.27;;;2.77;;
39778;SDS011;25454;49.878;8.618;2023-06-14T23:32:37;3.20;;;2.77;;
39778;SDS011;25454;49.878;8.618;2023-06-14T23:37:39;5.50;;;2.83;;
39778;SDS011;25454;49.878;8.618;2023-06-14T23:42:41;3.33;;;2.80;;
39778;SDS011;25454;49.878;8.618;2023-06-14T23:47:41;4.93;;;2.67;;
39778;SDS011;25454;49.878;8.618;2023-06-14T23:52:43;3.50;;;2.63;;
39778;SDS011;25454;49.878;8.618;2023-06-14T23:57:44;5.07;;;2.90;;
